Main page
METAR-TAF:

METAR-TAF

Airports :

Jersey Airport

Jersey,

latitude: 49-13N, longitude: 002-12W, elevation: 84 m

Current weather observation

The report was made 13 minutes ago, at 12:50 UTC
Wind 6 kt from the Northeast, varying between North and East/Southeast
Temperature 6°C
Humidity 61%
Pressure 1024 hPa
Visibility 10 km or more
Few clouds at a height of 2000 ft
Broken clouds at a height of 3200 ft

METAR: EGJJ 081250Z 05006KT 010V110 9999 FEW020 BKN032 06/M01 Q1024

Time: 13:03 (13:03 UTC)

Forecast

The report was made 2 hours and 5 minutes ago, at 10:58 UTC
Forecast valid from 08 at 12 UTC to 08 at 21 UTC
Wind 5 kt from the North/Northeast
Visibility 10 km or more
Broken clouds at a height of 3000 ft
Temporary
from 08 at 12 UTC to 08 at 21 UTC
Wind 3 kt from variable directions

TAF: EGJJ 081058Z 0812/0821 03005KT 9999 BKN030 TEMPO 0812/0821 VRB03KT

Weather observations and forecasts of more than 4000 airports (METAR and TAF reports).

The available stations are represented by yellow and red dots on the map.

Hover mouse over dot to see the name of the station.

Then click to see weather observations and forecasts.

To change the map : click on the green buttons with a black cross to zoom in, on the green button with a dash to zoom out, or on the green arrows for adjacent maps.


METAR-TAF: